If you wish to contribute or participate in the discussions about articles you are invited to join SKYbrary as a registered user

 Actions

Gobernador Horacio Guzman International Airport

From SKYbrary Wiki

SASJ
Airport
ICAO: SASJ – IATA: JUJ
Summary
Name Gobernador Horacio Guzman International Airport
Region South America and Caribbean
Territory Argentina AR.gif
Location Ciudad Perico, Jujuy
Serving Jujuy
Elevation 920.191 m
3,019 ft
3,019 ft920.191 m
Type medium airport
Coordinates 24° 23' 34.00" S, 65° 5' 52.00" W
Runways
Designator Length Width Surface ROPS
16/34 2956 m9,698.163 ft
40 m131.234 ft
ASP yes/yes


METAR
Observation SASJ 190300Z 27004KT CAVOK 17/07 Q1007
Station Jujuy Aerodrome
Date/Time 19 September 2019 03:00:00
Wind direction 270°
Wind speed 04 kts
Lowest cloud amount clouds and visibility OK
Temperature 17°C
Dew point 7°C
Humidity 51%
QNH 1007 hPa
Weather condition n/a

Airport 1nm 1,852 m
1.852 km
6,076.115 ft
east of Ciudad Perico, Jujuy province, Argentina.

Climatology

Humid subtropical climate (Köppen climate classification Cwa).

Maps

Terrain

Loading map...

Airport Layout

Loading map...


Accidents & Serious Incidents at or in vicinity of SASJ

None on SKYbrary